Time;durP1;ratioP1;P1;durP2;ratioP2;P2;SDS_P1;SDS_P2;PMS_P1;PMS_P2;Temp;Humidity;BMP_temperature;BMP_pressure;BME280_temperature;BME280_humidity;BME280_pressure;Samples;Min_cycle;Max_cycle;Signal;HPM_P1;HPM_P2
2021/05/25 00:02:16;;;;;;;12.90;6.03;;;;;;;10.65;100.00;100052.20;1722688;81;21687;-66
2021/05/25 00:04:43;;;;;;;9.33;4.75;;;;;;;10.70;100.00;100046.91;1731699;82;20917;-66
2021/05/25 00:07:10;;;;;;;6.90;4.60;;;;;;;10.75;100.00;100047.00;1726646;81;21639;-64
2021/05/25 00:09:37;;;;;;;5.30;4.80;;;;;;;10.76;100.00;100047.84;1727020;82;20987;-66
2021/05/25 00:12:05;;;;;;;5.42;3.85;;;;;;;10.79;100.00;100044.66;1727016;82;21075;-66
2021/05/25 00:14:34;;;;;;;6.60;4.00;;;;;;;10.83;100.00;100043.13;1723770;82;21070;-66
2021/05/25 00:17:02;;;;;;;5.30;4.47;;;;;;;10.81;100.00;100040.67;1734747;81;21494;-67
2021/05/25 00:19:29;;;;;;;6.12;5.37;;;;;;;10.80;100.00;100045.73;1738117;81;21725;-67
2021/05/25 00:21:56;;;;;;;6.05;5.45;;;;;;;10.79;100.00;100036.60;1730597;81;21626;-65
2021/05/25 00:24:23;;;;;;;8.18;6.45;;;;;;;10.80;100.00;100041.71;1726757;82;23108;-65
2021/05/25 00:26:49;;;;;;;11.35;8.40;;;;;;;10.75;100.00;100038.95;1727441;81;21039;-66
2021/05/25 00:29:16;;;;;;;11.15;8.15;;;;;;;10.75;100.00;100036.80;1723277;82;21110;-66
2021/05/25 00:31:43;;;;;;;9.98;8.73;;;;;;;10.70;100.00;100032.15;1727801;82;21142;-66
2021/05/25 00:34:10;;;;;;;13.38;10.05;;;;;;;10.68;100.00;100028.89;1726938;82;21015;-65
2021/05/25 00:36:37;;;;;;;14.33;9.75;;;;;;;10.60;100.00;100024.73;1727216;81;21063;-67
2021/05/25 00:39:05;;;;;;;14.00;9.28;;;;;;;10.53;100.00;100025.95;1727863;82;21001;-66
2021/05/25 00:41:34;;;;;;;12.95;9.78;;;;;;;10.44;100.00;100034.40;1725609;82;21019;-66
2021/05/25 00:44:09;;;;;;;11.12;8.75;;;;;;;10.37;100.00;100031.05;1736436;82;20896;-66
2021/05/25 00:46:37;;;;;;;11.97;8.00;;;;;;;10.38;100.00;100034.54;1734555;81;21138;-66
2021/05/25 00:49:05;;;;;;;18.02;10.30;;;;;;;10.35;100.00;100034.49;1728317;82;21585;-67
2021/05/25 00:51:33;;;;;;;12.80;10.50;;;;;;;10.24;100.00;100033.47;1728766;82;21553;-67
2021/05/25 00:54:01;;;;;;;19.50;11.38;;;;;;;10.15;100.00;100034.09;1703782;82;25319;-66
2021/05/25 00:56:27;;;;;;;12.73;9.90;;;;;;;10.08;100.00;100033.69;1732200;82;21142;-66
2021/05/25 00:58:55;;;;;;;11.80;9.00;;;;;;;10.04;100.00;100033.06;1722576;81;21087;-66
2021/05/25 01:01:22;;;;;;;12.07;8.40;;;;;;;9.98;100.00;100030.81;1728300;81;21895;-66
2021/05/25 01:03:49;;;;;;;10.05;7.53;;;;;;;9.93;100.00;100037.42;1734882;82;21132;-66
2021/05/25 01:06:16;;;;;;;12.63;7.97;;;;;;;9.93;100.00;100041.44;1728495;81;21605;-67
2021/05/25 01:08:43;;;;;;;9.63;7.92;;;;;;;9.87;100.00;100043.22;1724597;82;21525;-66
2021/05/25 01:11:14;;;;;;;10.30;7.25;;;;;;;9.83;100.00;100039.89;1730341;81;21070;-67
2021/05/25 01:13:46;;;;;;;12.03;7.62;;;;;;;9.76;100.00;100040.55;1733801;81;22391;-66
2021/05/25 01:16:10;;;;;;;;;;;;;;;9.74;100.00;100029.24;1727961;82;21059;-68
2021/05/25 01:18:36;;;;;;;11.33;7.97;;;;;;;9.70;100.00;100034.28;1725287;82;20226;-66
2021/05/25 01:21:06;;;;;;;12.68;7.67;;;;;;;9.63;100.00;100029.03;1738362;82;21023;-65
2021/05/25 01:23:35;;;;;;;9.88;6.28;;;;;;;9.62;100.00;100029.27;1703575;82;21292;-66
2021/05/25 01:26:02;;;;;;;;;;;;;;;9.60;100.00;100026.84;1732084;82;21131;-66
2021/05/25 01:28:28;;;;;;;7.78;6.70;;;;;;;9.60;100.00;100024.66;1732313;82;20266;-66
2021/05/25 01:30:56;;;;;;;7.17;6.47;;;;;;;9.59;100.00;100025.19;1738032;82;21096;-66
2021/05/25 01:33:26;;;;;;;8.08;5.55;;;;;;;9.61;100.00;100028.98;1724663;81;21091;-65
2021/05/25 01:35:54;;;;;;;6.45;5.47;;;;;;;9.65;100.00;100025.59;1732165;81;21027;-66
2021/05/25 01:38:20;;;;;;;6.28;5.78;;;;;;;9.75;100.00;100023.66;1729127;81;21166;-65
2021/05/25 01:40:50;;;;;;;6.87;6.17;;;;;;;9.80;100.00;100028.28;1728967;81;21570;-66
2021/05/25 01:43:17;;;;;;;9.28;5.78;;;;;;;9.79;100.00;100028.01;1727444;82;20932;-66
2021/05/25 01:45:45;;;;;;;6.03;5.35;;;;;;;9.74;100.00;100030.05;1731616;82;21011;-66
2021/05/25 01:48:12;;;;;;;7.47;5.55;;;;;;;9.77;100.00;100028.23;1731357;81;21024;-65
2021/05/25 01:50:40;;;;;;;6.33;5.72;;;;;;;9.77;100.00;100019.38;1730876;81;21134;-64
2021/05/25 01:53:17;;;;;;;6.13;5.53;;;;;;;9.79;100.00;100024.80;1732407;82;21031;-65
2021/05/25 01:55:52;;;;;;;6.83;5.85;;;;;;;9.79;100.00;100031.50;1728182;82;20990;-65
2021/05/25 01:58:26;;;;;;;10.35;5.62;;;;;;;9.78;100.00;100032.56;1732390;81;21222;-66
2021/05/25 02:01:05;;;;;;;5.72;5.10;;;;;;;9.76;100.00;100033.84;1729328;82;21024;-66
2021/05/25 02:03:32;;;;;;;8.50;6.15;;;;;;;9.80;100.00;100031.80;1725433;81;21118;-67
2021/05/25 02:06:00;;;;;;;7.37;6.37;;;;;;;9.84;100.00;100026.77;1725836;82;21092;-66
2021/05/25 02:08:26;;;;;;;7.80;5.87;;;;;;;9.91;100.00;100031.47;1728844;82;21577;-66
2021/05/25 02:10:55;;;;;;;7.25;5.70;;;;;;;9.96;100.00;100026.20;1723109;82;21059;-66
2021/05/25 02:13:30;;;;;;;6.80;5.22;;;;;;;10.03;100.00;100032.25;1734173;81;21061;-68
2021/05/25 02:16:00;;;;;;;5.05;4.60;;;;;;;10.06;100.00;100031.77;1729775;82;21131;-67
2021/05/25 02:18:33;;;;;;;7.40;5.10;;;;;;;10.12;100.00;100035.38;1734083;81;21526;-67
2021/05/25 02:21:03;;;;;;;5.30;4.85;;;;;;;10.22;100.00;100036.11;1726207;82;20888;-67
2021/05/25 02:23:29;;;;;;;7.03;5.25;;;;;;;10.26;100.00;100034.55;1733179;82;21032;-66
2021/05/25 02:25:56;;;;;;;6.33;4.78;;;;;;;10.26;100.00;100033.21;1727369;82;21020;-67
2021/05/25 02:28:24;;;;;;;5.90;4.45;;;;;;;10.28;100.00;100036.50;1726482;82;21116;-67
2021/05/25 02:30:51;;;;;;;4.70;4.15;;;;;;;10.32;100.00;100032.30;1725917;82;21082;-65
2021/05/25 02:33:20;;;;;;;5.35;4.87;;;;;;;10.35;100.00;100037.18;1721842;82;21101;-67
2021/05/25 02:35:49;;;;;;;7.47;5.25;;;;;;;10.39;100.00;100037.53;1727992;82;20888;-65
2021/05/25 02:38:16;;;;;;;6.05;5.15;;;;;;;10.42;100.00;100039.19;1729766;82;21072;-67
2021/05/25 02:40:45;;;;;;;6.00;5.40;;;;;;;10.45;100.00;100031.98;1724336;82;21482;-67
2021/05/25 02:43:13;;;;;;;6.42;5.22;;;;;;;10.49;100.00;100030.46;1726859;81;20979;-67
2021/05/25 02:45:42;;;;;;;6.62;5.17;;;;;;;10.56;100.00;100029.48;1723195;81;20896;-67
2021/05/25 02:48:09;;;;;;;7.42;4.40;;;;;;;10.65;100.00;100028.84;1725527;82;20944;-67
2021/05/25 02:50:37;;;;;;;6.00;5.40;;;;;;;10.78;100.00;100026.91;1732048;81;21526;-67
2021/05/25 02:53:04;;;;;;;11.80;6.30;;;;;;;10.91;100.00;100027.94;1728759;81;21098;-67
2021/05/25 02:55:34;;;;;;;6.55;5.87;;;;;;;10.98;100.00;100034.50;1731049;82;21067;-66
2021/05/25 02:58:03;;;;;;;10.93;5.97;;;;;;;10.96;100.00;100033.92;1725037;81;21027;-67
2021/05/25 03:00:32;;;;;;;10.23;6.10;;;;;;;10.87;100.00;100039.69;1734774;82;21706;-67
2021/05/25 03:02:59;;;;;;;5.67;4.80;;;;;;;10.86;100.00;100035.92;1731021;82;20996;-66
2021/05/25 03:05:27;;;;;;;8.98;5.83;;;;;;;10.88;100.00;100029.78;1732524;81;21635;-66
2021/05/25 03:07:57;;;;;;;7.05;5.03;;;;;;;10.96;100.00;100033.92;1736382;82;20968;-67
2021/05/25 03:10:27;;;;;;;5.92;5.35;;;;;;;11.05;100.00;100025.22;1722608;82;21119;-67
2021/05/25 03:12:54;;;;;;;9.60;5.60;;;;;;;11.14;100.00;100023.72;1728086;82;21103;-67
2021/05/25 03:15:28;;;;;;;11.60;5.90;;;;;;;11.19;100.00;100025.67;1730838;81;21031;-66
2021/05/25 03:17:56;;;;;;;5.20;4.65;;;;;;;11.23;100.00;100031.38;1730007;81;20940;-66
2021/05/25 03:20:23;;;;;;;5.87;4.20;;;;;;;11.32;100.00;100026.69;1725822;82;20916;-67
2021/05/25 03:22:49;;;;;;;5.95;5.05;;;;;;;11.41;100.00;100024.91;1723857;82;20948;-66
2021/05/25 03:25:16;;;;;;;8.00;4.42;;;;;;;11.55;100.00;100021.62;1727931;82;21522;-66
2021/05/25 03:27:46;;;;;;;6.90;4.90;;;;;;;11.76;100.00;100022.70;1730373;82;21131;-66
2021/05/25 03:30:17;;;;;;;8.18;5.30;;;;;;;11.98;100.00;100012.52;1730176;82;21007;-67
2021/05/25 03:32:43;;;;;;;6.00;5.40;;;;;;;12.21;100.00;100010.86;1722923;82;21260;-66
2021/05/25 03:35:13;;;;;;;5.10;4.60;;;;;;;12.43;100.00;100011.36;1732286;82;21123;-68
2021/05/25 03:37:40;;;;;;;4.55;4.00;;;;;;;12.66;100.00;100008.86;1728630;82;21506;-66
2021/05/25 03:40:09;;;;;;;5.62;3.37;;;;;;;12.81;100.00;100016.25;1725890;82;20923;-67
2021/05/25 03:42:36;;;;;;;4.35;3.58;;;;;;;12.78;100.00;100001.42;1735379;82;21097;-66
2021/05/25 03:45:05;;;;;;;4.67;3.35;;;;;;;12.89;100.00;99997.48;1727448;82;21131;-66
2021/05/25 03:47:32;;;;;;;;;;;;;;;13.15;100.00;100002.50;1734250;82;21692;-66
2021/05/25 03:50:07;;;;;;;4.28;3.10;;;;;;;13.31;100.00;100006.15;1731267;82;20139;-66
2021/05/25 03:52:28;;;;;;;3.30;3.00;;;;;;;13.51;100.00;99999.51;1721584;81;21011;-66
2021/05/25 03:54:58;;;;;;;3.83;3.02;;;;;;;13.59;100.00;100003.59;1727703;82;21143;-66
2021/05/25 03:59:57;;;;;;;4.28;3.30;;;;;;;13.75;100.00;100006.64;1730206;81;20308;-64
2021/05/25 04:02:24;;;;;;;5.55;3.30;;;;;;;13.76;100.00;100010.95;1727848;81;21023;-65
2021/05/25 04:04:50;;;;;;;3.40;3.00;;;;;;;13.85;100.00;100018.01;1730429;82;21127;-66
2021/05/25 04:07:17;;;;;;;4.75;2.50;;;;;;;14.04;100.00;100019.70;1723297;82;21066;-65
2021/05/25 04:09:44;;;;;;;2.92;2.52;;;;;;;14.30;100.00;100011.92;1727172;82;21536;-66
2021/05/25 04:12:11;;;;;;;4.00;2.50;;;;;;;14.51;100.00;100007.38;1729266;81;21078;-66
2021/05/25 04:14:42;;;;;;;5.42;3.20;;;;;;;14.56;100.00;100006.59;1729966;81;22456;-67
2021/05/25 04:17:10;;;;;;;3.80;2.62;;;;;;;14.59;100.00;100008.75;1699064;82;21046;-67
2021/05/25 04:19:38;;;;;;;5.62;2.80;;;;;;;14.67;100.00;100019.02;1704114;82;21139;-67
2021/05/25 04:22:05;;;;;;;3.70;2.72;;;;;;;14.86;100.00;100010.39;1729127;81;21023;-66
2021/05/25 04:24:32;;;;;;;4.37;3.33;;;;;;;15.20;100.00;100009.27;1670469;81;21616;-66
2021/05/25 04:26:59;;;;;;;8.70;2.98;;;;;;;15.51;100.00;100008.66;1667281;84;21759;-66
2021/05/25 04:29:26;;;;;;;5.22;2.70;;;;;;;15.74;100.00;100004.55;1663464;84;21086;-66
2021/05/25 04:31:52;;;;;;;6.00;2.92;;;;;;;15.84;100.00;100001.79;1676381;84;21226;-65
2021/05/25 04:34:19;;;;;;;4.35;2.50;;;;;;;16.00;100.00;100003.09;1673980;84;21154;-66
2021/05/25 04:36:46;;;;;;;2.95;2.25;;;;;;;16.17;100.00;100003.53;1679206;84;21127;-67
2021/05/25 04:39:12;;;;;;;6.58;3.12;;;;;;;16.31;100.00;100005.61;1658361;85;21150;-64
2021/05/25 04:41:39;;;;;;;9.33;3.25;;;;;;;16.28;100.00;100001.02;1654359;85;21083;-66
2021/05/25 04:44:06;;;;;;;3.90;3.45;;;;;;;16.08;100.00;100007.36;1672443;84;21181;-65
2021/05/25 04:46:32;;;;;;;6.50;2.70;;;;;;;16.00;100.00;100008.50;1678962;84;21621;-66
2021/05/25 04:48:59;;;;;;;2.87;1.95;;;;;;;15.95;100.00;100013.92;1687199;83;21083;-65
2021/05/25 04:51:26;;;;;;;6.45;2.62;;;;;;;16.00;100.00;100015.27;1683779;84;21150;-66
2021/05/25 04:53:53;;;;;;;5.78;2.45;;;;;;;16.05;100.00;100018.76;1676043;84;21716;-64
2021/05/25 04:56:20;;;;;;;3.92;2.60;;;;;;;16.06;100.00;100014.95;1673034;84;21147;-65
2021/05/25 04:58:47;;;;;;;6.53;2.20;;;;;;;16.13;100.00;100010.59;1680117;84;21633;-65
2021/05/25 05:01:15;;;;;;;5.50;2.70;;;;;;;16.20;100.00;100015.16;1675984;83;21071;-63
2021/05/25 05:03:42;;;;;;;5.28;2.72;;;;;;;16.28;100.00;100013.20;1678423;84;21062;-64
2021/05/25 05:06:09;;;;;;;7.62;2.95;;;;;;;16.40;100.00;100012.86;1694764;81;21113;-66
2021/05/25 05:08:36;;;;;;;10.00;2.90;;;;;;;16.44;100.00;100014.48;1715753;82;25137;-67
2021/05/25 05:11:03;;;;;;;7.00;2.55;;;;;;;16.45;100.00;100015.53;1714356;81;20922;-66
2021/05/25 05:13:30;;;;;;;2.98;2.20;;;;;;;16.48;100.00;100010.91;1715193;82;20969;-65
2021/05/25 05:15:57;;;;;;;3.77;2.40;;;;;;;16.55;100.00;100007.08;1714314;83;20961;-65
2021/05/25 05:18:24;;;;;;;7.55;2.40;;;;;;;16.65;100.00;100002.93;1717090;81;20915;-65
2021/05/25 05:20:51;;;;;;;3.00;2.02;;;;;;;16.76;100.00;100002.32;1706870;83;21074;-63
2021/05/25 05:23:17;;;;;;;3.92;2.22;;;;;;;16.82;100.00;100002.00;1702344;83;21151;-64
2021/05/25 05:25:44;;;;;;;3.85;2.10;;;;;;;16.85;100.00;99998.72;1682090;84;21000;-65
2021/05/25 05:28:10;;;;;;;2.70;2.00;;;;;;;16.85;100.00;99994.65;1690925;82;21052;-64
2021/05/25 05:30:37;;;;;;;3.50;2.22;;;;;;;17.07;100.00;100006.94;1731471;82;20963;-65
2021/05/25 05:33:06;;;;;;;7.47;2.27;;;;;;;17.24;100.00;100005.95;1729251;82;21031;-65
2021/05/25 05:35:33;;;;;;;4.60;2.40;;;;;;;17.30;100.00;100002.11;1730416;82;21055;-66
2021/05/25 05:38:03;;;;;;;5.50;2.42;;;;;;;17.41;100.00;100009.58;1727800;82;20952;-66
2021/05/25 05:40:31;;;;;;;7.47;2.20;;;;;;;17.55;100.00;100011.86;1726068;82;20883;-64
2021/05/25 05:42:58;;;;;;;3.47;2.02;;;;;;;17.43;100.00;100007.39;1720540;82;20950;-65
2021/05/25 05:45:25;;;;;;;5.22;2.12;;;;;;;17.32;100.00;100008.06;1725529;81;21047;-66
2021/05/25 05:47:52;;;;;;;6.20;2.20;;;;;;;17.13;100.00;100001.74;1721892;81;20912;-65
2021/05/25 05:50:19;;;;;;;7.33;2.40;;;;;;;16.98;100.00;100004.58;1695909;83;20954;-66
2021/05/25 05:52:46;;;;;;;7.17;2.53;;;;;;;16.86;100.00;100018.53;1690309;84;21595;-66
2021/05/25 05:55:14;;;;;;;4.30;2.35;;;;;;;17.06;100.00;100021.61;1695535;83;20945;-65
2021/05/25 05:57:42;;;;;;;5.08;2.27;;;;;;;17.46;100.00;100027.16;1691305;83;21473;-68
2021/05/25 06:00:10;;;;;;;3.67;2.27;;;;;;;17.83;100.00;100024.88;1695152;83;21031;-66
2021/05/25 06:02:41;;;;;;;11.97;2.60;;;;;;;18.29;100.00;100020.20;1696425;83;21066;-66
2021/05/25 06:05:09;;;;;;;;;;;;;;;18.63;100.00;100022.68;1697167;83;21540;-66
2021/05/25 06:07:37;;;;;;;1.67;1.57;;;;;;;18.62;100.00;100020.52;1698967;83;20170;-68
2021/05/25 06:10:05;;;;;;;6.47;2.23;;;;;;;18.71;100.00;100023.91;1695308;83;21050;-66
2021/05/25 06:12:35;;;;;;;3.62;1.55;;;;;;;18.70;100.00;100021.75;1688984;83;21140;-67
2021/05/25 06:15:03;;;;;;;1.70;1.50;;;;;;;18.81;100.00;100022.41;1693320;83;21002;-65
2021/05/25 06:17:30;;;;;;;3.77;1.80;;;;;;;18.93;100.00;100013.80;1699923;84;20939;-65
2021/05/25 06:19:57;;;;;;;3.10;1.90;;;;;;;19.09;100.00;100024.67;1693356;83;20900;-66
2021/05/25 06:22:23;;;;;;;3.30;1.77;;;;;;;19.22;100.00;100019.00;1691370;83;21049;-65
2021/05/25 06:24:50;;;;;;;4.08;1.92;;;;;;;19.19;100.00;100018.25;1697086;83;21174;-63
2021/05/25 06:27:18;;;;;;;3.30;1.52;;;;;;;19.33;100.00;100014.16;1707800;82;28629;-64
2021/05/25 06:29:45;;;;;;;5.12;1.90;;;;;;;19.40;100.00;100009.97;1731049;82;21010;-65
2021/05/25 06:32:12;;;;;;;2.80;1.60;;;;;;;19.69;100.00;99999.34;1696427;82;21644;-66
2021/05/25 06:34:39;;;;;;;1.73;1.33;;;;;;;19.69;96.94;100010.23;1675941;83;21746;-66
2021/05/25 06:37:06;;;;;;;4.33;2.20;;;;;;;19.76;94.76;100018.00;1679197;84;22256;-64
2021/05/25 06:39:34;;;;;;;4.90;1.47;;;;;;;19.81;94.86;100009.73;1670508;84;21483;-66
2021/05/25 06:42:00;;;;;;;2.15;1.17;;;;;;;20.06;93.84;100012.45;1671911;84;21482;-64
2021/05/25 06:44:31;;;;;;;7.15;1.35;;;;;;;20.11;92.62;100002.81;1677729;83;26362;-67
2021/05/25 06:46:57;;;;;;;3.35;1.20;;;;;;;20.29;92.66;99998.34;1678811;84;21637;-65
2021/05/25 06:49:24;;;;;;;2.20;1.50;;;;;;;20.27;92.04;99993.19;1672960;84;21019;-67
2021/05/25 06:51:50;;;;;;;2.83;1.30;;;;;;;20.48;92.44;99988.08;1670483;84;20968;-66
2021/05/25 06:54:17;;;;;;;8.53;1.62;;;;;;;20.57;88.68;99983.27;1670616;84;20988;-64
2021/05/25 06:56:44;;;;;;;6.35;1.35;;;;;;;20.39;85.83;100003.55;1670274;84;21091;-66
2021/05/25 06:59:11;;;;;;;3.92;1.55;;;;;;;20.23;82.50;100001.72;1680783;83;21075;-65
2021/05/25 07:01:38;;;;;;;6.83;1.40;;;;;;;20.23;82.70;99996.83;1682854;83;21150;-67
2021/05/25 07:04:05;;;;;;;2.95;1.75;;;;;;;20.25;81.94;99987.23;1676902;83;20932;-68
2021/05/25 07:06:32;;;;;;;5.33;1.72;;;;;;;20.51;81.19;99989.38;1677652;84;21059;-65
2021/05/25 07:08:59;;;;;;;2.90;1.50;;;;;;;20.89;81.00;99985.71;1677979;83;21952;-65
2021/05/25 07:11:26;;;;;;;6.23;1.70;;;;;;;21.02;79.23;99969.03;1669923;84;21623;-64
2021/05/25 07:13:53;;;;;;;3.40;1.30;;;;;;;20.80;78.59;99976.69;1672065;83;21547;-65
2021/05/25 07:16:19;;;;;;;2.75;1.45;;;;;;;20.61;76.12;99970.06;1627746;86;20935;-67
2021/05/25 07:18:46;;;;;;;1.67;1.22;;;;;;;20.65;76.82;99985.23;1638493;85;21126;-64
2021/05/25 07:21:13;;;;;;;3.00;1.50;;;;;;;20.50;74.51;99986.38;1632383;86;26335;-64
2021/05/25 07:23:40;;;;;;;5.08;1.45;;;;;;;20.42;76.12;99978.39;1637033;84;21070;-64
2021/05/25 07:26:07;;;;;;;2.08;1.72;;;;;;;20.40;73.66;99971.64;1642711;85;21055;-64
2021/05/25 07:28:33;;;;;;;1.75;1.35;;;;;;;20.17;72.66;99974.91;1647512;85;21513;-65
2021/05/25 07:31:01;;;;;;;3.65;1.50;;;;;;;20.16;72.01;99976.80;1604309;86;21599;-66
2021/05/25 07:33:27;;;;;;;2.85;1.70;;;;;;;20.11;71.12;99974.20;1686410;83;20962;-66
2021/05/25 07:35:54;;;;;;;4.72;2.25;;;;;;;20.33;71.99;99957.06;1680160;84;21156;-65
2021/05/25 07:38:21;;;;;;;1.80;1.40;;;;;;;20.34;70.10;99971.76;1687006;82;21013;-65
2021/05/25 07:40:49;;;;;;;2.85;1.20;;;;;;;20.45;69.39;99968.78;1691660;82;21064;-63
2021/05/25 07:43:15;;;;;;;5.20;1.62;;;;;;;20.87;67.78;99976.23;1696609;82;21037;-66
2021/05/25 07:45:44;;;;;;;1.87;1.00;;;;;;;21.27;65.74;99970.27;1692708;82;21025;-69
2021/05/25 07:48:12;;;;;;;6.37;1.52;;;;;;;21.33;57.05;99977.18;1692380;84;21057;-64
2021/05/25 07:50:40;;;;;;;1.92;1.30;;;;;;;21.00;58.26;99979.45;1694153;82;20894;-68
2021/05/25 07:53:07;;;;;;;3.12;1.10;;;;;;;20.95;61.28;99983.11;1687146;83;28274;-65
2021/05/25 07:55:34;;;;;;;0.88;0.88;;;;;;;21.10;57.20;99986.56;1671316;83;21125;-69
2021/05/25 07:58:02;;;;;;;2.45;1.30;;;;;;;21.15;56.60;99988.59;1690340;83;21570;-66
2021/05/25 08:00:32;;;;;;;1.50;1.30;;;;;;;21.17;61.31;99995.11;1696706;83;21645;-69
2021/05/25 08:02:59;;;;;;;4.10;1.35;;;;;;;21.16;58.34;99983.36;1665493;84;21096;-67
2021/05/25 08:05:28;;;;;;;3.58;1.42;;;;;;;21.57;58.27;99980.12;1692944;83;21001;-66
2021/05/25 08:07:55;;;;;;;1.80;1.00;;;;;;;21.57;58.27;99980.12;1697642;83;21038;-67
2021/05/25 08:10:23;;;;;;;3.15;1.30;;;;;;;21.63;56.92;99977.47;1693299;83;21519;-67
2021/05/25 08:12:51;;;;;;;1.80;0.95;;;;;;;21.61;56.48;99971.54;1698191;83;21065;-63
2021/05/25 08:15:20;;;;;;;3.22;1.22;;;;;;;21.56;55.01;99954.73;1689692;83;21082;-66
2021/05/25 08:20:34;;;;;;;3.00;1.30;;;;;;;21.41;52.77;99967.44;1644022;85;20255;-63
2021/05/25 08:23:01;;;;;;;2.10;1.00;;;;;;;21.13;55.28;99973.09;1619554;86;21135;-64
2021/05/25 08:25:31;;;;;;;2.05;1.10;;;;;;;21.04;54.21;99981.78;1633828;86;21663;-64
2021/05/25 08:28:01;;;;;;;2.92;0.88;;;;;;;21.11;54.96;99971.78;1612957;86;21129;-66
2021/05/25 08:30:30;;;;;;;4.90;1.45;;;;;;;21.05;52.51;99975.22;1625548;86;21003;-64
2021/05/25 08:32:57;;;;;;;5.37;1.52;;;;;;;21.22;56.33;99975.06;1608069;86;21551;-65
2021/05/25 08:35:29;;;;;;;4.50;1.42;;;;;;;21.54;55.90;99971.20;1568926;88;21038;-64
2021/05/25 08:37:59;;;;;;;1.87;1.07;;;;;;;21.55;53.18;99969.50;1623223;86;21169;-67
2021/05/25 08:40:27;;;;;;;4.67;1.40;;;;;;;21.10;52.81;99960.07;1619284;87;21711;-66
2021/05/25 08:42:53;;;;;;;3.50;1.32;;;;;;;21.02;55.89;99958.12;1617745;87;21138;-64
2021/05/25 08:45:22;;;;;;;1.30;1.12;;;;;;;21.38;54.79;99958.48;1620898;87;21016;-65
2021/05/25 08:47:50;;;;;;;2.25;1.37;;;;;;;21.69;52.92;99961.19;1623405;87;21058;-65
2021/05/25 08:50:19;;;;;;;1.50;1.15;;;;;;;22.06;52.75;99961.72;1614740;87;21908;-63
2021/05/25 08:52:46;;;;;;;3.72;0.90;;;;;;;22.36;52.79;99968.75;1655087;84;21077;-61
2021/05/25 08:55:13;;;;;;;1.45;1.02;;;;;;;22.26;48.06;99959.73;1656982;86;21077;-61
2021/05/25 08:57:40;;;;;;;7.67;1.30;;;;;;;21.76;49.18;99953.89;1646200;85;21544;-65
2021/05/25 09:00:09;;;;;;;;;;;;;;;21.33;52.21;99948.52;1650564;85;21487;-67
2021/05/25 09:02:36;;;;;;;;;;;;;;;21.33;51.77;99933.50;1641064;85;21072;-68
2021/05/25 09:05:15;;;;;;;2.15;1.37;;;;;;;21.52;52.12;99947.48;1651912;86;20157;-66
2021/05/25 09:07:48;;;;;;;1.45;1.20;;;;;;;21.58;50.05;99953.86;1645707;86;21081;-64
2021/05/25 09:10:47;;;;;;;4.42;1.17;;;;;;;21.95;49.63;99946.21;1658076;85;21666;-69
2021/05/25 09:13:16;;;;;;;4.53;1.50;;;;;;;21.98;48.06;99950.23;1646698;85;21021;-66
2021/05/25 09:15:54;;;;;;;5.10;1.32;;;;;;;21.57;50.95;99948.70;1648207;85;21065;-63
2021/05/25 09:18:27;;;;;;;4.33;1.10;;;;;;;21.47;50.40;99944.91;1654097;85;21037;-66
2021/05/25 09:21:01;;;;;;;3.27;1.00;;;;;;;21.90;49.01;99935.97;1649548;84;20938;-64
2021/05/25 09:23:42;;;;;;;2.50;1.22;;;;;;;21.97;47.82;99940.41;1662758;85;20927;-65
2021/05/25 09:26:15;;;;;;;1.70;0.98;;;;;;;22.16;46.29;99930.53;1643662;85;20999;-64
2021/05/25 09:28:57;;;;;;;2.45;1.07;;;;;;;22.12;47.89;99922.72;1682876;83;21482;-67
2021/05/25 09:31:51;;;;;;;4.28;1.22;;;;;;;22.29;45.97;99931.52;1679508;84;20994;-62
2021/05/25 09:34:24;;;;;;;2.67;1.20;;;;;;;22.28;44.21;99923.88;1683879;83;21100;-64
2021/05/25 09:37:05;;;;;;;5.25;1.45;;;;;;;22.45;46.76;99921.69;1670487;84;20907;-66
2021/05/25 09:39:44;;;;;;;2.40;1.10;;;;;;;22.55;46.63;99921.34;1638908;84;21012;-67
2021/05/25 09:42:12;;;;;;;1.80;0.88;;;;;;;22.93;46.60;99937.04;1687941;83;21707;-65
2021/05/25 09:44:58;;;;;;;3.22;0.98;;;;;;;22.86;41.80;99933.42;1674801;84;20990;-68
2021/05/25 09:47:53;;;;;;;2.72;1.00;;;;;;;22.72;42.96;99938.86;1686619;83;21141;-64
2021/05/25 09:50:23;;;;;;;1.12;0.90;;;;;;;22.72;41.89;99928.72;1691192;83;20998;-63
2021/05/25 09:53:11;;;;;;;5.08;0.98;;;;;;;22.26;42.68;99926.92;1692814;82;21042;-64
2021/05/25 09:55:55;;;;;;;3.92;0.80;;;;;;;21.82;43.63;99893.86;1675438;83;21069;-65
2021/05/25 09:58:38;;;;;;;2.42;0.93;;;;;;;21.84;44.55;99919.73;1687856;83;21689;-64
2021/05/25 10:01:08;;;;;;;1.70;0.80;;;;;;;21.84;44.04;99905.28;1672306;83;20999;-65
2021/05/25 10:03:48;;;;;;;1.72;1.15;;;;;;;22.07;45.59;99903.75;1678167;83;20967;-65
2021/05/25 10:06:14;;;;;;;3.27;1.35;;;;;;;21.93;46.74;99902.56;1694398;84;21014;-65
2021/05/25 10:08:46;;;;;;;3.60;1.10;;;;;;;21.79;47.65;99893.14;1694852;83;21469;-67
2021/05/25 10:11:16;;;;;;;1.50;0.95;;;;;;;21.72;48.95;99899.64;1690629;83;20932;-64
2021/05/25 10:13:43;;;;;;;3.17;1.07;;;;;;;21.70;46.23;99884.13;1698839;84;21074;-64
2021/05/25 10:16:11;;;;;;;8.10;1.45;;;;;;;21.66;45.10;99891.38;1692429;83;21616;-62
2021/05/25 10:21:11;;;;;;;5.33;0.90;;;;;;;21.67;47.88;99893.77;1699947;84;21124;-64
2021/05/25 10:23:39;;;;;;;4.62;0.90;;;;;;;21.82;49.36;99886.46;1699941;83;21650;-67
2021/05/25 10:26:14;;;;;;;1.55;0.80;;;;;;;21.88;46.32;99886.30;1699646;83;20920;-66
2021/05/25 10:28:50;;;;;;;3.72;1.02;;;;;;;21.65;45.83;99892.48;1696678;83;21024;-67
2021/05/25 10:31:37;;;;;;;3.60;1.10;;;;;;;21.52;46.36;99893.67;1692854;83;21614;-65
2021/05/25 10:34:24;;;;;;;1.57;1.10;;;;;;;21.59;47.05;99892.64;1697240;83;21071;-65
2021/05/25 10:36:59;;;;;;;1.25;1.02;;;;;;;21.69;45.72;99877.88;1659348;83;20938;-64
2021/05/25 10:39:37;;;;;;;2.90;1.12;;;;;;;21.55;46.18;99865.71;1693463;83;20885;-64
2021/05/25 10:42:25;;;;;;;3.58;1.17;;;;;;;21.46;47.79;99879.94;1696631;83;20965;-65
2021/05/25 10:45:13;;;;;;;2.20;1.25;;;;;;;21.70;48.97;99886.30;1699295;83;21043;-66
2021/05/25 10:48:02;;;;;;;3.47;1.00;;;;;;;21.99;48.04;99878.83;1691963;83;21655;-63
2021/05/25 10:50:32;;;;;;;3.17;1.50;;;;;;;22.41;46.60;99872.30;1682100;84;21069;-63
2021/05/25 10:53:09;;;;;;;2.05;1.00;;;;;;;22.33;46.31;99889.53;1688615;83;21548;-63
2021/05/25 10:55:44;;;;;;;1.50;0.90;;;;;;;22.59;46.77;99890.86;1695862;83;21067;-66
2021/05/25 10:58:32;;;;;;;3.58;1.22;;;;;;;22.51;44.31;99875.25;1693700;83;21192;-64
2021/05/25 11:00:56;;;;;;;2.77;1.10;;;;;;;22.58;44.01;99858.34;1692027;83;21071;-67
2021/05/25 11:03:24;;;;;;;4.90;1.12;;;;;;;22.68;44.65;99877.96;1698610;82;21694;-65
2021/05/25 11:05:55;;;;;;;2.10;1.40;;;;;;;22.82;45.46;99875.00;1706722;82;21017;-64
2021/05/25 11:08:33;;;;;;;2.35;0.70;;;;;;;22.79;43.67;99871.55;1691773;82;21606;-64
2021/05/25 11:11:19;;;;;;;3.02;1.07;;;;;;;22.67;46.29;99865.97;1692728;82;20950;-62
2021/05/25 11:13:54;;;;;;;3.90;1.00;;;;;;;22.54;46.67;99862.31;1697928;83;21062;-63
2021/05/25 11:16:37;;;;;;;2.02;1.02;;;;;;;22.39;46.70;99850.50;1689062;81;20988;-63
2021/05/25 11:19:18;;;;;;;1.00;0.70;;;;;;;22.18;47.81;99858.57;1651871;83;20917;-62
2021/05/25 11:24:44;;;;;;;1.92;1.10;;;;;;;22.15;49.03;99850.45;1680473;84;21024;-63
2021/05/25 11:27:42;;;;;;;4.53;2.37;;;;;;;22.02;48.78;99854.16;1688805;83;21062;-66
2021/05/25 11:30:08;;;;;;;7.58;1.32;;;;;;;21.77;51.21;99848.37;1685735;83;21267;-64
2021/05/25 11:32:45;;;;;;;4.78;1.40;;;;;;;21.73;52.74;99850.16;1693434;83;20918;-65
2021/05/25 11:35:19;;;;;;;7.13;2.90;;;;;;;21.61;53.33;99850.80;1690465;83;21065;-65
2021/05/25 11:37:51;;;;;;;6.70;1.57;;;;;;;21.37;49.10;99849.84;1698519;82;21542;-65
2021/05/25 11:40:18;;;;;;;3.55;2.47;;;;;;;21.24;48.53;99843.97;1696293;83;21052;-62
2021/05/25 11:42:46;;;;;;;3.65;2.05;;;;;;;21.22;48.51;99839.95;1696215;82;21181;-66
2021/05/25 11:45:18;;;;;;;3.60;2.42;;;;;;;21.19;50.08;99849.02;1667193;83;21048;-63
2021/05/25 11:47:44;;;;;;;5.37;3.47;;;;;;;21.12;50.76;99852.77;1672497;83;21051;-62